CNP2 weather

Lake Rosseau/Windermere Seaplane Base
Ontario, Canada

Public forecast

Using degrees Celsius for public forecast. Weather courtesy of forecast.io.

METAR (pilot weather report)

Closest report is Muskoka Airport, 15.1 nm (28.0 km) SE. Retrieved 2019/09/23 12:44 UTC (0 seconds ago):

CYQA 231244Z AUTO 28008KT 240V310 2 1/2SM -RA BR BKN004 OVC007 18/18 A2969 RMK SLP053 DENSITY ALT 1700FT

TAF (pilot weather forecast)

Closest forecast is Muskoka Airport, 15.1 nm (28.0 km) SE. Retrieved 2019/09/23 12:42 UTC (0 seconds ago):

TAF CYQA 231138Z 2312/2324 20006KT 3SM -SHRA BR BKN004 OVC030 TEMPO 2312/2318 6SM BR SCT004 OVC030 BECMG 2313/2315 29008KT FM231800 26010KT 5SM -SHRA BR OVC015 TEMPO 2318/2324 P6SM NSW SCT015 OVC030 BECMG 2318/2320 27010G20KT RMK FCST BASED ON AUTO OBS. NXT FCST BY 231400Z